Time,TemperatureF,DewpointF,PressureIn,WindDirection,WindDirectionDegrees,WindSpeedMPH,WindSpeedGustMPH,Humidity,HourlyPrecipIn,Conditions,Clouds,dailyrainin,SoftwareType,DateUTC
2013-08-17 00:01:00,62.7,60.0,30.21,NNE,22,0.0,0.0,91,0.00,,---,0.00,VWS V14.01,2013-08-17 04:01:00,
2013-08-17 00:02:00,62.7,60.0,30.21,NNE,22,0.0,0.0,91,0.00,,---,0.00,VWS V14.01,2013-08-17 04:02:00,
2013-08-17 00:03:00,62.8,60.1,30.21,NNE,22,0.0,0.0,91,0.00,,---,0.00,VWS V14.01,2013-08-17 04:03:00,
2013-08-17 00:04:00,62.8,60.1,30.21,NNE,22,0.0,1.0,91,0.00,,---,0.00,VWS V14.01,2013-08-17 04:04:00,
2013-08-17 00:09:00,62.8,60.1,30.21,NE,35,0.0,1.0,91,0.00,,---,0.00,VWS V14.01,2013-08-17 04:09:00,
2013-08-17 00:14:00,62.9,60.2,30.21,NNE,32,0.0,3.0,91,0.00,,---,0.00,VWS V14.01,2013-08-17 04:14:00,
2013-08-17 00:19:00,62.9,59.9,30.21,NE,34,0.0,2.0,90,0.00,,---,0.00,VWS V14.01,2013-08-17 04:19:00,
2013-08-17 00:25:00,62.9,59.9,30.21,NE,34,0.0,2.0,90,0.00,,---,0.00,VWS V14.01,2013-08-17 04:25:00,
2013-08-17 00:30:00,62.9,59.9,30.21,NE,36,0.0,2.0,90,0.00,,---,0.00,VWS V14.01,2013-08-17 04:30:00,
2013-08-17 00:35:00,63.0,60.0,30.20,ESE,109,0.0,0.0,90,0.00,,---,0.00,VWS V14.01,2013-08-17 04:35:00,
2013-08-17 00:40:00,63.0,60.0,30.21,ESE,109,0.0,0.0,90,0.00,,---,0.00,VWS V14.01,2013-08-17 04:40:00,
2013-08-17 00:45:00,62.9,59.9,30.20,ESE,109,0.0,0.0,90,0.00,,---,0.00,VWS V14.01,2013-08-17 04:45:00,
2013-08-17 00:50:00,62.9,59.9,30.20,ESE,108,0.0,0.0,90,0.00,,---,0.00,VWS V14.01,2013-08-17 04:50:00,
2013-08-17 00:55:00,62.8,60.1,30.20,ESE,108,0.0,0.0,91,0.00,,---,0.00,VWS V14.01,2013-08-17 04:55:00,
2013-08-17 01:00:00,62.7,60.0,30.20,East,93,0.0,0.0,91,0.00,,---,0.00,VWS V14.01,2013-08-17 05:00:00,
2013-08-17 01:05:00,62.6,60.2,30.20,NNE,17,0.0,0.0,92,0.00,,---,0.00,VWS V14.01,2013-08-17 05:05:00,
2013-08-17 01:10:00,62.5,60.2,30.21,NNE,17,0.0,0.0,92,0.00,,---,0.00,VWS V14.01,2013-08-17 05:10:00,
2013-08-17 01:15:00,62.5,60.2,30.20,NNE,17,0.0,0.0,92,0.02,,---,0.02,VWS V14.01,2013-08-17 05:15:00,
2013-08-17 01:20:00,62.4,60.0,30.20,NNE,17,0.0,0.0,92,0.02,,---,0.02,VWS V14.01,2013-08-17 05:20:00,
2013-08-17 01:26:00,62.3,60.2,30.20,NNE,17,0.0,0.0,93,0.02,,---,0.02,VWS V14.01,2013-08-17 05:26:00,
2013-08-17 01:31:00,62.2,60.2,30.20,NNE,15,0.0,0.0,93,0.03,,---,0.03,VWS V14.01,2013-08-17 05:31:00,
2013-08-17 01:36:00,62.1,60.1,30.20,NE,50,0.0,0.0,93,0.03,,---,0.03,VWS V14.01,2013-08-17 05:36:00,
2013-08-17 01:41:00,62.0,60.0,30.20,NE,48,0.0,0.0,93,0.03,,---,0.03,VWS V14.01,2013-08-17 05:41:00,
2013-08-17 01:46:00,62.0,60.0,30.20,NE,48,0.0,0.0,93,0.04,,---,0.04,VWS V14.01,2013-08-17 05:46:00,
2013-08-17 01:51:00,61.9,60.2,30.20,NE,48,0.0,0.0,94,0.04,,---,0.04,VWS V14.01,2013-08-17 05:51:00,
2013-08-17 01:56:00,61.9,60.2,30.20,NE,48,0.0,0.0,94,0.04,,---,0.04,VWS V14.01,2013-08-17 05:56:00,
2013-08-17 02:01:00,61.9,60.2,30.20,NE,48,0.0,0.0,94,0.04,,---,0.04,VWS V14.01,2013-08-17 06:01:00,
2013-08-17 02:06:00,61.9,60.2,30.20,NE,48,0.0,0.0,94,0.06,,---,0.06,VWS V14.01,2013-08-17 06:06:00,
2013-08-17 02:11:00,61.8,60.1,30.20,North,355,0.0,2.0,94,0.06,,---,0.06,VWS V14.01,2013-08-17 06:11:00,
2013-08-17 02:16:00,61.8,60.1,30.20,North,355,0.0,0.0,94,0.06,,---,0.07,VWS V14.01,2013-08-17 06:16:00,
2013-08-17 02:21:00,61.8,60.1,30.20,North,355,0.0,0.0,94,0.07,,---,0.08,VWS V14.01,2013-08-17 06:21:00,
2013-08-17 02:26:00,61.7,60.0,30.19,North,355,0.0,2.0,94,0.08,,---,0.09,VWS V14.01,2013-08-17 06:26:00,
2013-08-17 02:31:00,61.7,60.3,30.19,North,349,3.0,3.0,95,0.06,,---,0.09,VWS V14.01,2013-08-17 06:31:00,
2013-08-17 02:36:00,61.6,60.2,30.19,NNW,344,0.0,3.0,95,0.06,,---,0.09,VWS V14.01,2013-08-17 06:36:00,
2013-08-17 02:41:00,61.6,60.2,30.19,NNW,339,0.0,3.0,95,0.07,,---,0.10,VWS V14.01,2013-08-17 06:41:00,
2013-08-17 02:46:00,61.6,60.2,30.19,NNE,29,0.0,0.0,95,0.07,,---,0.11,VWS V14.01,2013-08-17 06:46:00,
2013-08-17 02:51:00,61.6,60.2,30.19,NNE,15,0.0,2.0,95,0.08,,---,0.12,VWS V14.01,2013-08-17 06:51:00,
2013-08-17 02:56:00,61.6,60.2,30.19,NNE,29,0.0,2.0,95,0.09,,---,0.13,VWS V14.01,2013-08-17 06:56:00,
2013-08-17 03:01:00,61.5,60.1,30.19,NNE,22,0.0,3.0,95,0.10,,---,0.14,VWS V14.01,2013-08-17 07:01:00,
2013-08-17 03:06:00,61.5,60.1,30.19,ENE,63,0.0,3.0,95,0.11,,---,0.16,VWS V14.01,2013-08-17 07:06:00,
2013-08-17 03:11:00,61.5,60.1,30.19,NW,323,0.0,4.0,95,0.14,,---,0.18,VWS V14.01,2013-08-17 07:11:00,
2013-08-17 03:17:00,61.5,60.1,30.19,North,5,0.0,2.0,95,0.14,,---,0.20,VWS V14.01,2013-08-17 07:17:00,
2013-08-17 03:22:00,61.5,60.1,30.19,North,9,0.0,4.0,95,0.14,,---,0.20,VWS V14.01,2013-08-17 07:22:00,
2013-08-17 03:27:00,61.5,60.1,30.19,North,9,3.0,4.0,95,0.15,,---,0.21,VWS V14.01,2013-08-17 07:27:00,
2013-08-17 03:32:00,61.5,60.1,30.18,NE,35,1.0,4.0,95,0.13,,---,0.22,VWS V14.01,2013-08-17 07:32:00,
2013-08-17 03:37:00,61.4,60.0,30.18,NNE,13,5.0,6.0,95,0.13,,---,0.22,VWS V14.01,2013-08-17 07:37:00,
2013-08-17 03:42:00,61.4,60.0,30.18,NW,313,1.0,7.0,95,0.13,,---,0.22,VWS V14.01,2013-08-17 07:42:00,
2013-08-17 03:47:00,61.4,60.2,30.18,North,355,0.0,3.0,96,0.12,,---,0.22,VWS V14.01,2013-08-17 07:47:00,
2013-08-17 03:52:00,61.4,60.2,30.18,NW,319,3.0,7.0,96,0.12,,---,0.22,VWS V14.01,2013-08-17 07:52:00,
2013-08-17 03:57:00,61.4,60.2,30.18,North,360,0.0,7.0,96,0.12,,---,0.22,VWS V14.01,2013-08-17 07:57:00,
2013-08-17 04:02:00,61.4,60.2,30.18,NNE,13,2.0,2.0,96,0.08,,---,0.22,VWS V14.01,2013-08-17 08:02:00,
2013-08-17 04:07:00,61.4,60.2,30.18,NNE,25,1.0,4.0,96,0.08,,---,0.22,VWS V14.01,2013-08-17 08:07:00,
2013-08-17 04:12:00,61.4,60.2,30.18,North,355,2.0,5.0,96,0.08,,---,0.22,VWS V14.01,2013-08-17 08:12:00,
2013-08-17 04:17:00,61.4,60.2,30.19,North,5,0.0,4.0,96,0.02,,---,0.22,VWS V14.01,2013-08-17 08:17:00,
2013-08-17 04:22:00,61.4,60.2,30.19,NNW,340,1.0,4.0,96,0.02,,---,0.22,VWS V14.01,2013-08-17 08:22:00,
2013-08-17 04:27:00,61.4,60.2,30.18,North,350,0.0,6.0,96,0.02,,---,0.22,VWS V14.01,2013-08-17 08:27:00,
2013-08-17 04:32:00,61.4,60.2,30.18,NNE,27,3.0,3.0,96,0.01,,---,0.22,VWS V14.01,2013-08-17 08:32:00,
2013-08-17 04:37:00,61.4,60.2,30.18,NNW,333,0.0,5.0,96,0.01,,---,0.22,VWS V14.01,2013-08-17 08:37:00,
2013-08-17 04:42:00,61.4,60.2,30.18,NW,323,0.0,5.0,96,0.01,,---,0.22,VWS V14.01,2013-08-17 08:42:00,
2013-08-17 04:47:00,61.4,60.2,30.19,NW,323,0.0,2.0,96,0.00,,---,0.22,VWS V14.01,2013-08-17 08:47:00,
2013-08-17 04:53:00,61.5,60.3,30.19,NNW,344,0.0,3.0,96,0.00,,---,0.22,VWS V14.01,2013-08-17 08:53:00,
2013-08-17 04:58:00,61.5,60.3,30.19,NE,34,0.0,4.0,96,0.01,,---,0.23,VWS V14.01,2013-08-17 08:58:00,
2013-08-17 05:03:00,61.4,60.2,30.18,NNW,328,1.0,4.0,96,0.02,,---,0.24,VWS V14.01,2013-08-17 09:03:00,
2013-08-17 05:08:00,61.4,60.2,30.18,NNW,345,2.0,5.0,96,0.03,,---,0.25,VWS V14.01,2013-08-17 09:08:00,
2013-08-17 05:13:00,61.4,60.2,30.18,NNW,338,2.0,6.0,96,0.03,,---,0.25,VWS V14.01,2013-08-17 09:13:00,
2013-08-17 05:18:00,61.4,60.2,30.18,NNE,31,3.0,4.0,96,0.03,,---,0.25,VWS V14.01,2013-08-17 09:18:00,
2013-08-17 05:23:00,61.4,60.2,30.18,NNE,13,2.0,5.0,96,0.03,,---,0.25,VWS V14.01,2013-08-17 09:23:00,
2013-08-17 05:28:00,61.4,60.2,30.18,NNE,30,1.0,6.0,96,0.03,,---,0.25,VWS V14.01,2013-08-17 09:28:00,
2013-08-17 05:33:00,61.4,60.2,30.18,NW,310,2.0,5.0,96,0.04,,---,0.26,VWS V14.01,2013-08-17 09:33:00,
2013-08-17 05:38:00,61.4,60.2,30.18,NNW,334,7.0,7.0,96,0.04,,---,0.26,VWS V14.01,2013-08-17 09:38:00,
2013-08-17 05:43:00,61.4,60.2,30.18,NNW,339,0.0,7.0,96,0.04,,---,0.26,VWS V14.01,2013-08-17 09:43:00,
2013-08-17 05:48:00,61.4,60.2,30.18,North,360,2.0,5.0,96,0.04,,---,0.26,VWS V14.01,2013-08-17 09:48:00,
2013-08-17 05:53:00,61.4,60.2,30.18,East,101,0.0,5.0,96,0.04,,---,0.26,VWS V14.01,2013-08-17 09:53:00,
2013-08-17 05:58:00,61.4,60.2,30.19,NE,36,0.0,5.0,96,0.04,,---,0.26,VWS V14.01,2013-08-17 09:58:00,
2013-08-17 06:03:00,61.4,60.2,30.19,NNW,347,1.0,3.0,96,0.02,,---,0.26,VWS V14.01,2013-08-17 10:03:00,
2013-08-17 06:08:00,61.4,60.2,30.19,NE,42,1.0,4.0,96,0.02,,---,0.26,VWS V14.01,2013-08-17 10:08:00,
2013-08-17 06:13:00,61.5,60.3,30.19,NNE,17,0.0,5.0,96,0.02,,---,0.26,VWS V14.01,2013-08-17 10:13:00,
2013-08-17 06:18:00,61.5,60.3,30.19,NNE,22,0.0,2.0,96,0.01,,---,0.26,VWS V14.01,2013-08-17 10:18:00,
2013-08-17 06:23:00,61.5,60.3,30.19,North,355,1.0,5.0,96,0.01,,---,0.26,VWS V14.01,2013-08-17 10:23:00,
2013-08-17 06:28:00,61.5,60.3,30.19,NNE,27,1.0,5.0,96,0.01,,---,0.26,VWS V14.01,2013-08-17 10:28:00,
2013-08-17 06:33:00,61.5,60.3,30.19,NNE,31,0.0,6.0,96,0.00,,---,0.26,VWS V14.01,2013-08-17 10:33:00,
2013-08-17 06:38:00,61.5,60.3,30.19,North,355,4.0,6.0,96,0.00,,---,0.26,VWS V14.01,2013-08-17 10:38:00,
2013-08-17 06:44:00,61.6,60.5,30.20,NNE,26,1.0,6.0,96,0.01,,---,0.27,VWS V14.01,2013-08-17 10:44:00,
2013-08-17 06:49:00,61.5,60.3,30.20,NE,52,2.0,5.0,96,0.01,,---,0.27,VWS V14.01,2013-08-17 10:49:00,
2013-08-17 06:54:00,61.5,60.3,30.20,North,5,0.0,5.0,96,0.01,,---,0.27,VWS V14.01,2013-08-17 10:54:00,
2013-08-17 06:59:00,61.5,60.3,30.20,NE,45,1.0,5.0,96,0.01,,---,0.27,VWS V14.01,2013-08-17 10:59:00,
2013-08-17 07:04:00,61.5,60.3,30.20,NE,35,3.0,5.0,96,0.01,,---,0.27,VWS V14.01,2013-08-17 11:04:00,
2013-08-17 07:09:00,61.5,60.3,30.20,North,350,3.0,5.0,96,0.01,,---,0.27,VWS V14.01,2013-08-17 11:09:00,
2013-08-17 07:14:00,61.5,60.3,30.20,North,5,3.0,5.0,96,0.01,,---,0.27,VWS V14.01,2013-08-17 11:14:00,
2013-08-17 07:19:00,61.4,60.2,30.20,ENE,60,2.0,4.0,96,0.01,,---,0.27,VWS V14.01,2013-08-17 11:19:00,
2013-08-17 07:24:00,61.4,60.2,30.20,NE,55,1.0,7.0,96,0.01,,---,0.27,VWS V14.01,2013-08-17 11:24:00,
2013-08-17 07:29:00,61.4,60.2,30.21,NNE,19,2.0,7.0,96,0.01,,---,0.27,VWS V14.01,2013-08-17 11:29:00,
2013-08-17 07:34:00,61.4,60.2,30.20,NW,319,0.0,5.0,96,0.01,,---,0.27,VWS V14.01,2013-08-17 11:34:00,
2013-08-17 07:39:00,61.5,60.3,30.20,North,10,3.0,5.0,96,0.01,,---,0.27,VWS V14.01,2013-08-17 11:39:00,
2013-08-17 07:44:00,61.5,60.3,30.20,ENE,59,0.0,5.0,96,0.01,,---,0.27,VWS V14.01,2013-08-17 11:44:00,
2013-08-17 07:49:00,61.5,60.3,30.20,NNE,18,0.0,6.0,96,0.00,,---,0.27,VWS V14.01,2013-08-17 11:49:00,
2013-08-17 07:54:00,61.6,60.5,30.20,North,10,2.0,6.0,96,0.00,,---,0.27,VWS V14.01,2013-08-17 11:54:00,
2013-08-17 07:59:00,61.6,60.5,30.21,North,349,1.0,6.0,96,0.00,,---,0.27,VWS V14.01,2013-08-17 11:59:00,
2013-08-17 08:04:00,61.6,60.5,30.21,NE,34,0.0,6.0,96,0.00,,---,0.27,VWS V14.01,2013-08-17 12:04:00,
2013-08-17 08:06:00,61.6,60.5,30.21,NNW,345,1.0,6.0,96,0.00,,---,0.27,VWS V14.01,2013-08-17 12:06:00,
2013-08-17 08:11:00,61.7,60.5,30.21,NNW,342,5.0,6.0,96,0.00,,---,0.27,VWS V14.01,2013-08-17 12:11:00,
2013-08-17 08:16:00,61.7,60.5,30.20,North,5,5.0,6.0,96,0.00,,---,0.27,VWS V14.01,2013-08-17 12:16:00,
2013-08-17 08:21:00,61.7,60.5,30.20,NNE,24,2.0,7.0,96,0.01,,---,0.28,VWS V14.01,2013-08-17 12:21:00,
2013-08-17 08:26:00,61.8,60.7,30.20,North,355,2.0,7.0,96,0.01,,---,0.28,VWS V14.01,2013-08-17 12:26:00,
2013-08-17 08:31:00,61.9,60.8,30.20,NNW,328,5.0,7.0,96,0.01,,---,0.28,VWS V14.01,2013-08-17 12:31:00,
2013-08-17 08:36:00,62.0,60.8,30.20,NNW,344,3.0,7.0,96,0.01,,---,0.28,VWS V14.01,2013-08-17 12:36:00,
2013-08-17 08:41:00,62.1,61.0,30.20,North,5,2.0,8.0,96,0.01,,---,0.28,VWS V14.01,2013-08-17 12:41:00,
2013-08-17 08:46:00,62.2,61.0,30.20,North,355,1.0,4.0,96,0.01,,---,0.28,VWS V14.01,2013-08-17 12:46:00,
2013-08-17 08:51:00,62.3,61.2,30.20,NNW,348,0.0,10.0,96,0.01,,---,0.28,VWS V14.01,2013-08-17 12:51:00,
2013-08-17 08:56:00,62.5,61.3,30.21,North,349,0.0,10.0,96,0.01,,---,0.28,VWS V14.01,2013-08-17 12:56:00,
2013-08-17 09:01:00,62.6,61.5,30.21,North,11,8.0,8.0,96,0.01,,---,0.28,VWS V14.01,2013-08-17 13:01:00,
2013-08-17 09:06:00,62.6,61.5,30.21,NE,55,0.0,8.0,96,0.01,,---,0.28,VWS V14.01,2013-08-17 13:06:00,
2013-08-17 09:11:00,62.7,61.5,30.21,North,351,0.0,9.0,96,0.01,,---,0.28,VWS V14.01,2013-08-17 13:11:00,
2013-08-17 09:16:00,62.7,61.5,30.22,ENE,57,0.0,2.0,96,0.01,,---,0.28,VWS V14.01,2013-08-17 13:16:00,
2013-08-17 09:21:00,62.8,61.3,30.22,NW,317,3.0,5.0,95,0.01,,---,0.28,VWS V14.01,2013-08-17 13:21:00,
2013-08-17 09:26:00,62.8,61.3,30.22,NNE,24,6.0,6.0,95,0.01,,---,0.28,VWS V14.01,2013-08-17 13:26:00,
2013-08-17 09:31:00,62.7,61.2,30.22,NNE,31,0.0,4.0,95,0.00,,---,0.28,VWS V14.01,2013-08-17 13:31:00,
2013-08-17 09:37:00,62.8,61.3,30.22,NE,36,4.0,7.0,95,0.00,,---,0.28,VWS V14.01,2013-08-17 13:37:00,
2013-08-17 09:42:00,62.8,61.3,30.22,NE,56,3.0,7.0,95,0.00,,---,0.28,VWS V14.01,2013-08-17 13:42:00,
2013-08-17 09:47:00,62.9,61.5,30.22,NE,56,0.0,4.0,95,0.00,,---,0.28,VWS V14.01,2013-08-17 13:47:00,
2013-08-17 09:52:00,63.1,61.7,30.21,North,5,5.0,5.0,95,0.00,,---,0.28,VWS V14.01,2013-08-17 13:52:00,
2013-08-17 09:57:00,63.2,61.8,30.21,East,84,0.0,7.0,95,0.00,,---,0.28,VWS V14.01,2013-08-17 13:57:00,
2013-08-17 10:02:00,63.2,61.8,30.21,ENE,59,1.0,3.0,95,0.00,,---,0.28,VWS V14.01,2013-08-17 14:02:00,
2013-08-17 10:07:00,63.2,61.8,30.21,North,5,1.0,8.0,95,0.00,,---,0.28,VWS V14.01,2013-08-17 14:07:00,
2013-08-17 10:12:00,63.4,62.0,30.21,East,100,1.0,8.0,95,0.00,,---,0.28,VWS V14.01,2013-08-17 14:12:00,
2013-08-17 10:17:00,63.7,62.2,30.21,NNW,346,2.0,4.0,95,0.00,,---,0.28,VWS V14.01,2013-08-17 14:17:00,
2013-08-17 10:22:00,63.8,62.0,30.21,NW,305,2.0,7.0,94,0.00,,---,0.28,VWS V14.01,2013-08-17 14:22:00,
2013-08-17 10:27:00,64.0,62.2,30.21,East,84,0.0,8.0,94,0.00,,---,0.28,VWS V14.01,2013-08-17 14:27:00,
2013-08-17 10:32:00,64.1,62.3,30.21,NNE,31,0.0,6.0,94,0.00,,---,0.28,VWS V14.01,2013-08-17 14:32:00,
2013-08-17 10:37:00,64.3,62.5,30.22,North,355,0.0,9.0,94,0.00,,---,0.28,VWS V14.01,2013-08-17 14:37:00,
2013-08-17 10:42:00,64.5,62.7,30.22,ENE,65,2.0,9.0,94,0.00,,---,0.28,VWS V14.01,2013-08-17 14:42:00,
2013-08-17 10:47:00,64.7,62.9,30.22,NW,313,2.0,4.0,94,0.00,,---,0.28,VWS V14.01,2013-08-17 14:47:00,
2013-08-17 10:52:00,64.7,62.6,30.22,ENE,71,3.0,9.0,93,0.00,,---,0.28,VWS V14.01,2013-08-17 14:52:00,
2013-08-17 10:58:00,64.5,62.4,30.22,NE,35,0.0,9.0,93,0.00,,---,0.28,VWS V14.01,2013-08-17 14:58:00,
2013-08-17 11:03:00,64.4,62.3,30.22,NNE,16,2.0,4.0,93,0.00,,---,0.28,VWS V14.01,2013-08-17 15:03:00,
2013-08-17 11:08:00,64.5,62.4,30.22,NNW,346,0.0,7.0,93,0.00,,---,0.28,VWS V14.01,2013-08-17 15:08:00,
2013-08-17 11:13:00,64.6,62.5,30.22,NNE,31,3.0,7.0,93,0.00,,---,0.28,VWS V14.01,2013-08-17 15:13:00,
2013-08-17 11:18:00,64.7,62.9,30.22,WNW,300,3.0,5.0,94,0.00,,---,0.28,VWS V14.01,2013-08-17 15:18:00,
2013-08-17 11:23:00,64.7,62.6,30.22,North,355,2.0,5.0,93,0.00,,---,0.28,VWS V14.01,2013-08-17 15:23:00,
2013-08-17 11:28:00,64.7,62.6,30.22,North,11,3.0,7.0,93,0.00,,---,0.28,VWS V14.01,2013-08-17 15:28:00,
2013-08-17 11:33:00,64.6,62.8,30.22,NNE,18,1.0,4.0,94,0.00,,---,0.28,VWS V14.01,2013-08-17 15:33:00,
2013-08-17 11:38:00,64.6,62.8,30.22,NE,38,2.0,4.0,94,0.00,,---,0.28,VWS V14.01,2013-08-17 15:38:00,
2013-08-17 11:43:00,64.5,62.7,30.22,NNW,333,0.0,5.0,94,0.00,,---,0.28,VWS V14.01,2013-08-17 15:43:00,
2013-08-17 11:48:00,64.6,62.8,30.22,NE,56,4.0,6.0,94,0.00,,---,0.28,VWS V14.01,2013-08-17 15:48:00,
2013-08-17 11:53:00,64.6,62.8,30.22,NNW,331,4.0,6.0,94,0.00,,---,0.28,VWS V14.01,2013-08-17 15:53:00,
2013-08-17 11:58:00,64.8,63.3,30.22,ESE,117,1.0,6.0,95,0.00,,---,0.28,VWS V14.01,2013-08-17 15:58:00,
2013-08-17 12:03:00,64.7,62.9,30.22,NW,321,2.0,5.0,94,0.00,,---,0.28,VWS V14.01,2013-08-17 16:03:00,
2013-08-17 12:08:00,64.8,63.3,30.22,NW,313,2.0,5.0,95,0.00,,---,0.28,VWS V14.01,2013-08-17 16:08:00,
2013-08-17 12:13:00,64.8,63.3,30.22,NE,38,0.0,5.0,95,0.00,,---,0.28,VWS V14.01,2013-08-17 16:13:00,
2013-08-17 12:18:00,64.8,63.3,30.22,North,360,1.0,6.0,95,0.00,,---,0.28,VWS V14.01,2013-08-17 16:18:00,
2013-08-17 12:23:00,64.9,63.4,30.22,NW,315,2.0,6.0,95,0.00,,---,0.28,VWS V14.01,2013-08-17 16:23:00,
2013-08-17 12:28:00,65.0,63.5,30.22,NNW,343,0.0,6.0,95,0.01,,---,0.29,VWS V14.01,2013-08-17 16:28:00,
2013-08-17 12:33:00,64.9,63.4,30.22,NNE,30,0.0,4.0,95,0.01,,---,0.29,VWS V14.01,2013-08-17 16:33:00,
2013-08-17 12:38:00,65.0,63.5,30.22,ENE,57,3.0,4.0,95,0.01,,---,0.29,VWS V14.01,2013-08-17 16:38:00,
2013-08-17 12:43:00,64.9,63.4,30.22,North,350,0.0,6.0,95,0.02,,---,0.30,VWS V14.01,2013-08-17 16:43:00,
2013-08-17 12:48:00,65.1,63.6,30.22,NNW,345,1.0,4.0,95,0.02,,---,0.30,VWS V14.01,2013-08-17 16:48:00,
2013-08-17 12:53:00,65.1,63.6,30.22,North,360,1.0,6.0,95,0.02,,---,0.30,VWS V14.01,2013-08-17 16:53:00,
2013-08-17 12:58:00,65.4,63.9,30.22,NNE,22,2.0,7.0,95,0.03,,---,0.31,VWS V14.01,2013-08-17 16:58:00,
2013-08-17 13:04:00,65.5,64.0,30.22,ENE,65,1.0,4.0,95,0.03,,---,0.31,VWS V14.01,2013-08-17 17:04:00,
2013-08-17 13:09:00,65.6,64.4,30.22,North,10,1.0,5.0,96,0.03,,---,0.31,VWS V14.01,2013-08-17 17:09:00,
2013-08-17 13:14:00,65.5,64.0,30.21,ENE,73,1.0,7.0,95,0.03,,---,0.31,VWS V14.01,2013-08-17 17:14:00,
2013-08-17 13:19:00,65.6,64.4,30.21,ENE,73,1.0,7.0,96,0.03,,---,0.31,VWS V14.01,2013-08-17 17:19:00,
2013-08-17 13:24:00,65.7,64.5,30.21,NE,38,1.0,7.0,96,0.04,,---,0.32,VWS V14.01,2013-08-17 17:24:00,
2013-08-17 13:29:00,65.9,64.7,30.21,NNE,24,2.0,7.0,96,0.04,,---,0.32,VWS V14.01,2013-08-17 17:29:00,
2013-08-17 13:34:00,66.1,64.9,30.21,NW,321,3.0,5.0,96,0.03,,---,0.32,VWS V14.01,2013-08-17 17:34:00,
2013-08-17 13:39:00,66.1,64.6,30.21,North,350,0.0,5.0,95,0.03,,---,0.32,VWS V14.01,2013-08-17 17:39:00,
2013-08-17 13:44:00,66.1,64.6,30.21,North,355,1.0,7.0,95,0.03,,---,0.32,VWS V14.01,2013-08-17 17:44:00,
2013-08-17 13:49:00,66.0,64.5,30.20,NE,40,2.0,6.0,95,0.02,,---,0.32,VWS V14.01,2013-08-17 17:49:00,
2013-08-17 13:54:00,66.1,64.6,30.20,NNE,33,2.0,6.0,95,0.03,,---,0.33,VWS V14.01,2013-08-17 17:54:00,
2013-08-17 13:59:00,66.1,64.6,30.20,North,11,3.0,6.0,95,0.03,,---,0.33,VWS V14.01,2013-08-17 17:59:00,
2013-08-17 14:04:00,66.4,65.2,30.20,North,5,2.0,6.0,96,0.02,,---,0.33,VWS V14.01,2013-08-17 18:04:00,
2013-08-17 14:09:00,66.4,64.9,30.20,NE,36,1.0,7.0,95,0.02,,---,0.33,VWS V14.01,2013-08-17 18:09:00,
2013-08-17 14:14:00,66.4,64.9,30.19,North,355,1.0,7.0,95,0.02,,---,0.33,VWS V14.01,2013-08-17 18:14:00,
2013-08-17 14:19:00,66.1,64.6,30.19,NNW,336,3.0,8.0,95,0.02,,---,0.33,VWS V14.01,2013-08-17 18:19:00,
2013-08-17 14:24:00,66.1,64.6,30.19,NNE,21,5.0,8.0,95,0.02,,---,0.33,VWS V14.01,2013-08-17 18:24:00,
2013-08-17 14:29:00,66.3,64.8,30.19,NNE,32,1.0,8.0,95,0.02,,---,0.33,VWS V14.01,2013-08-17 18:29:00,
2013-08-17 14:34:00,66.5,65.0,30.19,North,360,3.0,5.0,95,0.01,,---,0.33,VWS V14.01,2013-08-17 18:34:00,
2013-08-17 14:39:00,66.5,65.0,30.19,NNE,22,5.0,7.0,95,0.01,,---,0.33,VWS V14.01,2013-08-17 18:39:00,
2013-08-17 14:44:00,66.5,65.0,30.19,North,350,3.0,8.0,95,0.01,,---,0.33,VWS V14.01,2013-08-17 18:44:00,
2013-08-17 14:49:00,66.7,65.2,30.19,North,5,7.0,7.0,95,0.01,,---,0.33,VWS V14.01,2013-08-17 18:49:00,
2013-08-17 14:54:00,66.5,64.7,30.18,WNW,287,0.0,7.0,94,0.01,,---,0.33,VWS V14.01,2013-08-17 18:54:00,
2013-08-17 15:00:00,66.6,64.8,30.18,ESE,112,1.0,7.0,94,0.01,,---,0.33,VWS V14.01,2013-08-17 19:00:00,
2013-08-17 15:05:00,66.6,65.1,30.18,NE,42,0.0,2.0,95,0.00,,---,0.33,VWS V14.01,2013-08-17 19:05:00,
2013-08-17 15:10:00,66.7,64.9,30.18,NE,55,0.0,7.0,94,0.00,,---,0.33,VWS V14.01,2013-08-17 19:10:00,
2013-08-17 15:15:00,67.0,65.5,30.18,East,88,0.0,7.0,95,0.00,,---,0.33,VWS V14.01,2013-08-17 19:15:00,
2013-08-17 15:20:00,67.2,65.4,30.18,ESE,115,2.0,4.0,94,0.00,,---,0.33,VWS V14.01,2013-08-17 19:20:00,
2013-08-17 15:25:00,67.6,65.8,30.18,NE,43,5.0,8.0,94,0.00,,---,0.33,VWS V14.01,2013-08-17 19:25:00,
2013-08-17 15:30:00,67.6,65.8,30.17,East,92,2.0,9.0,94,0.00,,---,0.33,VWS V14.01,2013-08-17 19:30:00,
2013-08-17 15:35:00,67.6,65.5,30.17,East,88,1.0,8.0,93,0.00,,---,0.33,VWS V14.01,2013-08-17 19:35:00,
2013-08-17 15:40:00,67.7,65.6,30.17,ESE,113,0.0,8.0,93,0.00,,---,0.33,VWS V14.01,2013-08-17 19:40:00,
2013-08-17 15:45:00,68.2,66.4,30.17,NE,37,0.0,6.0,94,0.00,,---,0.33,VWS V14.01,2013-08-17 19:45:00,
2013-08-17 15:51:00,68.3,65.9,30.17,ENE,65,1.0,7.0,92,0.00,,---,0.33,VWS V14.01,2013-08-17 19:51:00,
2013-08-17 15:56:00,68.1,65.7,30.17,SE,142,1.0,7.0,92,0.01,,---,0.34,VWS V14.01,2013-08-17 19:56:00,
2013-08-17 16:01:00,68.1,66.0,30.18,NNE,19,1.0,2.0,93,0.01,,---,0.34,VWS V14.01,2013-08-17 20:01:00,
2013-08-17 16:06:00,67.8,65.4,30.18,NNE,13,2.0,7.0,92,0.01,,---,0.34,VWS V14.01,2013-08-17 20:06:00,
2013-08-17 16:11:00,67.6,65.2,30.17,East,94,3.0,7.0,92,0.01,,---,0.34,VWS V14.01,2013-08-17 20:11:00,
2013-08-17 16:16:00,67.5,65.4,30.17,NNE,13,0.0,1.0,93,0.01,,---,0.34,VWS V14.01,2013-08-17 20:16:00,
2013-08-17 16:21:00,67.4,65.0,30.18,NNE,19,2.0,5.0,92,0.01,,---,0.34,VWS V14.01,2013-08-17 20:21:00,
2013-08-17 16:26:00,67.2,64.8,30.17,North,350,0.0,5.0,92,0.01,,---,0.34,VWS V14.01,2013-08-17 20:26:00,
2013-08-17 16:31:00,67.2,65.1,30.17,NNE,14,0.0,1.0,93,0.02,,---,0.35,VWS V14.01,2013-08-17 20:31:00,
2013-08-17 16:36:00,67.2,65.1,30.17,North,355,0.0,4.0,93,0.03,,---,0.36,VWS V14.01,2013-08-17 20:36:00,
2013-08-17 16:42:00,67.0,64.9,30.17,North,11,2.0,4.0,93,0.03,,---,0.36,VWS V14.01,2013-08-17 20:42:00,
2013-08-17 16:47:00,67.0,65.2,30.17,NNE,13,2.0,2.0,94,0.04,,---,0.37,VWS V14.01,2013-08-17 20:47:00,
2013-08-17 16:52:00,66.9,65.1,30.17,NNW,348,0.0,4.0,94,0.04,,---,0.37,VWS V14.01,2013-08-17 20:52:00,
2013-08-17 16:57:00,66.8,65.0,30.18,NNW,341,1.0,5.0,94,0.04,,---,0.37,VWS V14.01,2013-08-17 20:57:00,
2013-08-17 17:02:00,66.8,65.0,30.18,North,355,0.0,0.0,94,0.03,,---,0.37,VWS V14.01,2013-08-17 21:02:00,
2013-08-17 17:07:00,66.9,65.1,30.18,North,360,0.0,3.0,94,0.03,,---,0.37,VWS V14.01,2013-08-17 21:07:00,
2013-08-17 17:12:00,66.8,65.3,30.18,NNE,19,1.0,3.0,95,0.03,,---,0.37,VWS V14.01,2013-08-17 21:12:00,
2013-08-17 17:17:00,66.8,65.3,30.18,NNW,336,0.0,2.0,95,0.03,,---,0.37,VWS V14.01,2013-08-17 21:17:00,
2013-08-17 17:22:00,66.7,65.2,30.18,North,355,1.0,4.0,95,0.03,,---,0.37,VWS V14.01,2013-08-17 21:22:00,
2013-08-17 17:27:00,66.7,65.2,30.18,North,355,0.0,4.0,95,0.04,,---,0.38,VWS V14.01,2013-08-17 21:27:00,
2013-08-17 17:32:00,66.6,65.1,30.18,North,9,1.0,4.0,95,0.03,,---,0.38,VWS V14.01,2013-08-17 21:32:00,
2013-08-17 17:37:00,66.6,65.1,30.18,North,5,1.0,4.0,95,0.03,,---,0.38,VWS V14.01,2013-08-17 21:37:00,
2013-08-17 17:42:00,66.6,65.1,30.17,NNE,13,1.0,4.0,95,0.03,,---,0.38,VWS V14.01,2013-08-17 21:42:00,
2013-08-17 17:47:00,66.7,65.2,30.17,NE,40,0.0,4.0,95,0.02,,---,0.39,VWS V14.01,2013-08-17 21:47:00,
2013-08-17 17:52:00,66.6,65.1,30.17,NNE,32,2.0,4.0,95,0.02,,---,0.39,VWS V14.01,2013-08-17 21:52:00,
2013-08-17 17:57:00,66.4,64.9,30.17,North,355,0.0,7.0,95,0.03,,---,0.40,VWS V14.01,2013-08-17 21:57:00,
2013-08-17 18:03:00,66.4,64.9,30.17,North,355,0.0,3.0,95,0.03,,---,0.40,VWS V14.01,2013-08-17 22:03:00,
2013-08-17 18:08:00,66.3,64.8,30.17,NNE,18,3.0,3.0,95,0.03,,---,0.40,VWS V14.01,2013-08-17 22:08:00,
2013-08-17 18:13:00,66.4,64.9,30.17,North,355,2.0,3.0,95,0.03,,---,0.40,VWS V14.01,2013-08-17 22:13:00,
2013-08-17 18:18:00,66.3,64.8,30.18,ENE,65,0.0,4.0,95,0.03,,---,0.40,VWS V14.01,2013-08-17 22:18:00,
2013-08-17 18:23:00,66.3,64.8,30.18,East,84,1.0,4.0,95,0.03,,---,0.40,VWS V14.01,2013-08-17 22:23:00,
2013-08-17 18:28:00,66.2,64.7,30.18,NE,40,2.0,4.0,95,0.03,,---,0.40,VWS V14.01,2013-08-17 22:28:00,
2013-08-17 18:33:00,66.1,64.6,30.18,North,355,1.0,3.0,95,0.02,,---,0.40,VWS V14.01,2013-08-17 22:33:00,
2013-08-17 18:38:00,66.0,64.5,30.18,North,5,1.0,3.0,95,0.02,,---,0.40,VWS V14.01,2013-08-17 22:38:00,
2013-08-17 18:43:00,66.0,64.5,30.18,NE,40,0.0,3.0,95,0.02,,---,0.40,VWS V14.01,2013-08-17 22:43:00,
2013-08-17 18:48:00,65.9,64.4,30.18,NE,47,0.0,2.0,95,0.01,,---,0.40,VWS V14.01,2013-08-17 22:48:00,
2013-08-17 18:53:00,65.9,64.4,30.18,NNW,331,0.0,4.0,95,0.01,,---,0.40,VWS V14.01,2013-08-17 22:53:00,
2013-08-17 18:58:00,65.9,64.4,30.18,ESE,111,1.0,4.0,95,0.01,,---,0.40,VWS V14.01,2013-08-17 22:58:00,
2013-08-17 19:03:00,65.9,64.4,30.19,East,92,1.0,2.0,95,0.00,,---,0.40,VWS V14.01,2013-08-17 23:03:00,
2013-08-17 19:08:00,65.8,64.3,30.18,ENE,57,0.0,3.0,95,0.01,,---,0.41,VWS V14.01,2013-08-17 23:08:00,
2013-08-17 19:13:00,65.8,64.3,30.18,ENE,57,0.0,3.0,95,0.01,,---,0.41,VWS V14.01,2013-08-17 23:13:00,
2013-08-17 19:19:00,65.8,64.6,30.18,North,9,0.0,2.0,96,0.02,,---,0.42,VWS V14.01,2013-08-17 23:19:00,
2013-08-17 19:24:00,65.7,64.5,30.18,NNE,32,0.0,2.0,96,0.02,,---,0.42,VWS V14.01,2013-08-17 23:24:00,
2013-08-17 19:29:00,65.7,64.5,30.18,North,355,1.0,2.0,96,0.02,,---,0.42,VWS V14.01,2013-08-17 23:29:00,
2013-08-17 19:34:00,65.7,64.5,30.18,NE,36,0.0,3.0,96,0.02,,---,0.42,VWS V14.01,2013-08-17 23:34:00,
2013-08-17 19:39:00,65.6,64.4,30.19,North,355,1.0,4.0,96,0.03,,---,0.43,VWS V14.01,2013-08-17 23:39:00,
2013-08-17 19:44:00,65.6,64.4,30.19,NNE,25,3.0,4.0,96,0.03,,---,0.43,VWS V14.01,2013-08-17 23:44:00,
2013-08-17 19:49:00,65.6,64.4,30.18,NNE,19,0.0,2.0,96,0.03,,---,0.43,VWS V14.01,2013-08-17 23:49:00,
2013-08-17 19:54:00,65.6,64.4,30.18,North,350,0.0,2.0,96,0.03,,---,0.43,VWS V14.01,2013-08-17 23:54:00,
2013-08-17 19:59:00,65.5,64.3,30.19,North,5,1.0,2.0,96,0.04,,---,0.44,VWS V14.01,2013-08-17 23:59:00,
2013-08-17 20:04:00,65.5,64.3,30.19,NNE,14,0.0,2.0,96,0.04,,---,0.44,VWS V14.01,2013-08-18 00:04:00,
2013-08-17 20:09:00,65.5,64.3,30.19,NNE,16,0.0,2.0,96,0.04,,---,0.44,VWS V14.01,2013-08-18 00:09:00,
2013-08-17 20:15:00,65.5,64.3,30.19,NNW,337,0.0,2.0,96,0.04,,---,0.44,VWS V14.01,2013-08-18 00:15:00,
2013-08-17 20:20:00,65.5,64.3,30.19,NE,54,0.0,1.0,96,0.03,,---,0.44,VWS V14.01,2013-08-18 00:20:00,
2013-08-17 20:25:00,65.5,64.3,30.19,NE,51,0.0,2.0,96,0.04,,---,0.45,VWS V14.01,2013-08-18 00:25:00,
2013-08-17 20:30:00,65.5,64.3,30.19,NE,51,0.0,2.0,96,0.04,,---,0.45,VWS V14.01,2013-08-18 00:30:00,
2013-08-17 20:35:00,65.5,64.3,30.19,NE,51,0.0,1.0,96,0.03,,---,0.45,VWS V14.01,2013-08-18 00:35:00,
2013-08-17 20:40:00,65.5,64.3,30.19,NE,40,1.0,2.0,96,0.03,,---,0.45,VWS V14.01,2013-08-18 00:40:00,
2013-08-17 20:45:00,65.4,64.2,30.19,NE,51,0.0,0.0,96,0.02,,---,0.45,VWS V14.01,2013-08-18 00:45:00,
2013-08-17 20:50:00,65.5,64.3,30.19,WNW,300,2.0,2.0,96,0.02,,---,0.45,VWS V14.01,2013-08-18 00:50:00,
2013-08-17 20:55:00,65.5,64.3,30.19,NNE,26,2.0,3.0,96,0.02,,---,0.45,VWS V14.01,2013-08-18 00:55:00,
2013-08-17 21:01:00,65.5,64.3,30.19,NNE,26,1.0,2.0,96,0.01,,---,0.45,VWS V14.01,2013-08-18 01:01:00,
2013-08-17 21:06:00,65.4,64.2,30.19,NNE,16,1.0,3.0,96,0.01,,---,0.45,VWS V14.01,2013-08-18 01:06:00,
2013-08-17 21:11:00,65.4,64.2,30.19,NNE,16,0.0,3.0,96,0.01,,---,0.45,VWS V14.01,2013-08-18 01:11:00,
2013-08-17 21:16:00,65.4,64.2,30.19,NNE,17,0.0,1.0,96,0.01,,---,0.45,VWS V14.01,2013-08-18 01:16:00,
2013-08-17 21:21:00,65.4,64.2,30.20,NNE,17,0.0,1.0,96,0.01,,---,0.45,VWS V14.01,2013-08-18 01:21:00,
2013-08-17 21:26:00,65.4,64.2,30.20,NNE,17,0.0,1.0,96,0.01,,---,0.45,VWS V14.01,2013-08-18 01:26:00,
2013-08-17 21:31:00,65.5,64.3,30.20,NNE,17,1.0,1.0,96,0.00,,---,0.45,VWS V14.01,2013-08-18 01:31:00,
2013-08-17 21:36:00,65.5,64.3,30.19,ENE,62,1.0,2.0,96,0.00,,---,0.45,VWS V14.01,2013-08-18 01:36:00,
2013-08-17 21:41:00,65.5,64.3,30.19,NNE,17,0.0,3.0,96,0.00,,---,0.45,VWS V14.01,2013-08-18 01:41:00,
2013-08-17 21:47:00,65.4,64.2,30.19,ENE,58,0.0,1.0,96,0.00,,---,0.45,VWS V14.01,2013-08-18 01:47:00,
2013-08-17 21:52:00,65.4,64.2,30.20,NNW,347,0.0,2.0,96,0.00,,---,0.45,VWS V14.01,2013-08-18 01:52:00,
2013-08-17 21:57:00,65.5,64.3,30.20,NNW,348,0.0,2.0,96,0.00,,---,0.45,VWS V14.01,2013-08-18 01:57:00,
2013-08-17 22:02:00,65.5,64.3,30.20,East,80,0.0,1.0,96,0.00,,---,0.45,VWS V14.01,2013-08-18 02:02:00,
2013-08-17 22:07:00,65.5,64.3,30.20,NE,51,0.0,2.0,96,0.00,,---,0.45,VWS V14.01,2013-08-18 02:07:00,
2013-08-17 22:12:00,65.5,64.3,30.20,NE,51,0.0,2.0,96,0.00,,---,0.45,VWS V14.01,2013-08-18 02:12:00,
2013-08-17 22:17:00,65.5,64.3,30.21,ENE,63,0.0,0.0,96,0.00,,---,0.45,VWS V14.01,2013-08-18 02:17:00,
2013-08-17 22:22:00,65.5,64.3,30.20,NE,34,0.0,2.0,96,0.00,,---,0.45,VWS V14.01,2013-08-18 02:22:00,
2013-08-17 22:27:00,65.5,64.3,30.21,NNE,32,0.0,2.0,96,0.00,,---,0.45,VWS V14.01,2013-08-18 02:27:00,
2013-08-17 22:33:00,65.5,64.3,30.21,NNE,32,0.0,0.0,96,0.00,,---,0.45,VWS V14.01,2013-08-18 02:33:00,
2013-08-17 22:38:00,65.5,64.3,30.21,NNE,32,0.0,0.0,96,0.00,,---,0.45,VWS V14.01,2013-08-18 02:38:00,
2013-08-17 22:43:00,65.5,64.3,30.21,NNE,32,0.0,2.0,96,0.00,,---,0.45,VWS V14.01,2013-08-18 02:43:00,
2013-08-17 22:48:00,65.5,64.3,30.21,NNE,32,0.0,0.0,96,0.00,,---,0.45,VWS V14.01,2013-08-18 02:48:00,
2013-08-17 22:53:00,65.5,64.3,30.21,NNE,32,0.0,0.0,96,0.00,,---,0.45,VWS V14.01,2013-08-18 02:53:00,
2013-08-17 22:58:00,65.5,64.3,30.21,NNE,32,0.0,0.0,96,0.00,,---,0.45,VWS V14.01,2013-08-18 02:58:00,
2013-08-17 23:03:00,65.5,64.3,30.21,NNE,32,0.0,0.0,96,0.00,,---,0.45,VWS V14.01,2013-08-18 03:03:00,
2013-08-17 23:08:00,65.5,64.3,30.21,NNE,32,0.0,0.0,96,0.00,,---,0.45,VWS V14.01,2013-08-18 03:08:00,
2013-08-17 23:13:00,65.5,64.3,30.21,NNE,32,0.0,0.0,96,0.00,,---,0.45,VWS V14.01,2013-08-18 03:13:00,
2013-08-17 23:18:00,65.5,64.3,30.21,NNE,32,0.0,0.0,96,0.00,,---,0.45,VWS V14.01,2013-08-18 03:18:00,
2013-08-17 23:24:00,65.5,64.3,30.21,NNE,32,0.0,0.0,96,0.00,,---,0.45,VWS V14.01,2013-08-18 03:24:00,
2013-08-17 23:29:00,65.5,64.3,30.21,NNE,32,0.0,0.0,96,0.00,,---,0.45,VWS V14.01,2013-08-18 03:29:00,
2013-08-17 23:34:00,65.5,64.3,30.21,NNE,32,0.0,0.0,96,0.00,,---,0.45,VWS V14.01,2013-08-18 03:34:00,
2013-08-17 23:39:00,65.5,64.3,30.21,NNE,32,0.0,0.0,96,0.00,,---,0.45,VWS V14.01,2013-08-18 03:39:00,
2013-08-17 23:44:00,65.5,64.3,30.21,NNE,32,0.0,0.0,96,0.00,,---,0.45,VWS V14.01,2013-08-18 03:44:00,
2013-08-17 23:49:00,65.6,64.4,30.21,NNE,32,0.0,0.0,96,0.00,,---,0.45,VWS V14.01,2013-08-18 03:49:00,
2013-08-17 23:54:00,65.6,64.4,30.21,NNE,32,0.0,0.0,96,0.00,,---,0.45,VWS V14.01,2013-08-18 03:54:00,
2013-08-17 23:59:00,65.6,64.4,30.21,NNE,32,0.0,0.0,96,0.00,,---,0.45,VWS V14.01,2013-08-18 03:59:00,